Time;durP1;ratioP1;P1;durP2;ratioP2;P2;SDS_P1;SDS_P2;PMS_P1;PMS_P2;Temp;Humidity;BMP_temperature;BMP_pressure;BME280_temperature;BME280_humidity;BME280_pressure;Samples;Min_cycle;Max_cycle;Signal;HPM_P1;HPM_P2
2023/07/31 00:00:47;;;;;;;8.68;3.50;;;16.30;99.90;;;;;;5129057;27;20496;-80
2023/07/31 00:03:12;;;;;;;8.60;3.60;;;16.30;99.90;;;;;;5120329;27;20051;-81
2023/07/31 00:05:38;;;;;;;7.38;3.17;;;16.30;99.90;;;;;;5113412;27;20039;-80
2023/07/31 00:08:04;;;;;;;6.40;2.75;;;16.20;99.90;;;;;;5138704;27;20043;-81
2023/07/31 00:10:29;;;;;;;4.95;3.30;;;16.20;99.90;;;;;;5136684;27;20043;-81
2023/07/31 00:12:55;;;;;;;4.53;2.53;;;16.20;99.90;;;;;;5125040;27;20036;-81
2023/07/31 00:15:20;;;;;;;5.60;2.72;;;16.20;99.90;;;;;;5140850;27;20051;-81
2023/07/31 00:17:47;;;;;;;6.10;3.25;;;16.10;99.90;;;;;;5141257;27;20039;-80
2023/07/31 00:20:13;;;;;;;5.95;3.00;;;16.10;99.90;;;;;;5122097;27;20400;-81
2023/07/31 00:22:38;;;;;;;6.63;3.58;;;16.00;99.90;;;;;;5121202;27;20034;-80
2023/07/31 00:25:06;;;;;;;7.05;2.83;;;16.10;99.90;;;;;;5140935;27;20035;-81
2023/07/31 00:27:32;;;;;;;9.35;3.50;;;16.10;99.90;;;;;;5132056;27;20122;-80
2023/07/31 00:29:57;;;;;;;5.45;3.58;;;16.10;99.90;;;;;;5140815;27;20034;-81
2023/07/31 00:32:23;;;;;;;6.75;3.25;;;16.00;99.90;;;;;;5135240;27;20039;-80
2023/07/31 00:34:49;;;;;;;6.47;3.55;;;16.00;99.90;;;;;;5115960;27;20039;-81
2023/07/31 00:37:15;;;;;;;6.53;4.13;;;16.00;99.90;;;;;;5137209;27;20027;-80
2023/07/31 00:39:41;;;;;;;5.40;3.15;;;16.00;99.90;;;;;;5134948;27;20095;-81
2023/07/31 00:42:07;;;;;;;6.90;3.42;;;16.00;99.90;;;;;;5133417;27;20035;-80
2023/07/31 00:44:33;;;;;;;5.18;2.92;;;16.00;99.90;;;;;;5137903;27;20225;-80
2023/07/31 00:47:00;;;;;;;5.88;3.38;;;16.00;99.90;;;;;;5138130;27;20027;-81
2023/07/31 00:49:26;;;;;;;6.63;3.35;;;16.00;99.90;;;;;;5111659;27;20079;-81
2023/07/31 00:51:52;;;;;;;4.63;2.78;;;15.90;99.90;;;;;;5140369;27;20567;-81
2023/07/31 00:54:17;;;;;;;6.93;3.47;;;15.90;99.90;;;;;;5139150;27;20043;-81
2023/07/31 00:56:45;;;;;;;6.50;3.53;;;15.90;99.90;;;;;;5122092;27;20057;-80
2023/07/31 00:59:11;;;;;;;6.40;2.90;;;15.90;99.90;;;;;;5139734;27;20057;-81
2023/07/31 01:01:37;;;;;;;6.72;3.45;;;15.90;99.90;;;;;;5100532;27;20051;-80
2023/07/31 01:04:03;;;;;;;5.20;3.30;;;15.90;99.90;;;;;;5130931;27;20078;-81
2023/07/31 01:06:34;;;;;;;6.53;3.33;;;15.90;99.90;;;;;;5117760;27;20072;-81
2023/07/31 01:09:10;;;;;;;6.07;2.72;;;15.90;99.90;;;;;;5137368;27;20035;-81
2023/07/31 01:12:01;;;;;;;5.95;2.95;;;15.90;99.90;;;;;;5137795;27;20486;-81
2023/07/31 01:14:26;;;;;;;5.20;2.50;;;15.90;99.90;;;;;;5133770;27;20043;-81
2023/07/31 01:16:52;;;;;;;8.75;3.13;;;15.90;99.90;;;;;;5117711;27;20131;-81
2023/07/31 01:19:23;;;;;;;4.32;2.40;;;15.90;99.90;;;;;;5136259;27;20050;-81
2023/07/31 01:22:10;;;;;;;4.60;2.55;;;16.00;99.90;;;;;;5116856;27;20039;-80
2023/07/31 01:25:00;;;;;;;4.32;2.70;;;15.90;99.90;;;;;;5140157;27;20039;-81
2023/07/31 01:27:30;;;;;;;5.13;2.60;;;15.90;99.90;;;;;;5121276;27;20555;-81
2023/07/31 01:30:10;;;;;;;5.80;2.92;;;15.90;99.90;;;;;;5139428;27;20557;-81
2023/07/31 01:32:38;;;;;;;4.35;2.38;;;15.80;99.90;;;;;;5139063;27;21026;-81
2023/07/31 01:35:05;;;;;;;5.35;2.30;;;15.80;99.90;;;;;;5139408;27;20114;-81
2023/07/31 01:37:30;;;;;;;3.90;2.00;;;15.80;99.90;;;;;;5121003;27;20046;-81
2023/07/31 01:39:56;;;;;;;5.68;2.10;;;15.80;99.90;;;;;;5139258;27;20027;-80
2023/07/31 01:42:21;;;;;;;4.93;2.05;;;15.80;99.90;;;;;;5121522;27;20050;-81
2023/07/31 01:44:47;;;;;;;3.85;1.80;;;15.80;99.90;;;;;;5136737;27;20114;-81
2023/07/31 01:47:13;;;;;;;2.88;1.13;;;15.80;99.90;;;;;;5115138;27;20122;-81
2023/07/31 01:49:38;;;;;;;3.22;1.60;;;15.80;99.90;;;;;;5132254;27;20050;-81
2023/07/31 01:52:04;;;;;;;2.70;1.23;;;15.80;99.90;;;;;;5136837;27;20054;-81
2023/07/31 01:54:30;;;;;;;2.85;1.10;;;15.80;99.90;;;;;;5138235;27;20038;-81
2023/07/31 01:56:55;;;;;;;2.25;1.15;;;15.80;99.90;;;;;;5113020;27;20040;-81
2023/07/31 01:59:21;;;;;;;2.33;1.00;;;15.80;99.90;;;;;;5132132;27;20035;-81
2023/07/31 02:01:47;;;;;;;1.83;1.10;;;15.90;99.90;;;;;;5110754;27;20502;-81
2023/07/31 02:04:12;;;;;;;2.60;0.80;;;15.80;99.90;;;;;;5117984;27;20058;-80
2023/07/31 02:06:39;;;;;;;1.83;0.70;;;15.80;99.90;;;;;;5117809;27;20046;-81
2023/07/31 02:09:05;;;;;;;1.75;0.80;;;15.80;99.90;;;;;;5138637;27;20122;-81
2023/07/31 02:11:31;;;;;;;1.63;0.70;;;15.80;99.90;;;;;;5132507;27;20118;-81
2023/07/31 02:13:56;;;;;;;1.90;0.70;;;15.90;99.90;;;;;;5138248;27;20066;-81
2023/07/31 02:16:22;;;;;;;1.65;0.50;;;15.80;99.90;;;;;;5137890;27;20083;-81
2023/07/31 02:18:47;;;;;;;1.85;0.73;;;15.80;99.90;;;;;;5138627;27;20542;-81
2023/07/31 02:21:13;;;;;;;1.85;0.70;;;15.90;99.90;;;;;;5138729;27;20041;-81
2023/07/31 02:23:39;;;;;;;2.25;0.75;;;15.80;99.90;;;;;;5138759;27;20066;-81
2023/07/31 02:26:04;;;;;;;1.65;0.50;;;15.80;99.90;;;;;;5116714;27;20084;-80
2023/07/31 02:28:30;;;;;;;1.50;0.50;;;15.80;99.90;;;;;;5110533;28;20080;-81
2023/07/31 02:30:56;;;;;;;2.25;0.50;;;15.80;99.90;;;;;;5135341;27;20066;-81
2023/07/31 02:33:21;;;;;;;1.27;0.52;;;15.80;99.90;;;;;;5132573;27;20031;-81
2023/07/31 02:35:47;;;;;;;1.52;0.60;;;15.70;99.90;;;;;;5129330;27;20039;-81
2023/07/31 02:38:12;;;;;;;1.10;0.60;;;15.80;99.90;;;;;;5141398;27;20056;-81
2023/07/31 02:40:41;;;;;;;2.65;0.70;;;15.80;99.90;;;;;;5124086;27;20042;-80
2023/07/31 02:43:07;;;;;;;1.33;0.60;;;15.80;99.90;;;;;;5116203;27;20042;-81
2023/07/31 02:45:32;;;;;;;1.13;0.55;;;15.80;99.90;;;;;;5133394;27;20077;-81
2023/07/31 02:47:58;;;;;;;1.80;0.57;;;15.80;99.90;;;;;;5134730;27;20051;-81
2023/07/31 02:50:23;;;;;;;1.35;0.63;;;15.80;99.90;;;;;;5134808;27;20470;-81
2023/07/31 02:52:49;;;;;;;1.85;0.70;;;15.70;99.90;;;;;;5098590;27;20035;-81
2023/07/31 02:55:15;;;;;;;2.67;0.80;;;15.80;99.90;;;;;;5139417;27;20034;-81
2023/07/31 02:57:40;;;;;;;1.67;0.70;;;15.70;99.90;;;;;;5142958;27;20481;-81
2023/07/31 03:00:07;;;;;;;1.85;0.80;;;15.70;99.90;;;;;;5135925;27;20123;-81
2023/07/31 03:02:32;;;;;;;1.50;0.80;;;15.80;99.90;;;;;;5134449;27;20489;-81
2023/07/31 03:04:58;;;;;;;2.10;0.68;;;15.70;99.90;;;;;;5116285;27;20035;-81
2023/07/31 03:07:24;;;;;;;1.42;0.60;;;15.70;99.90;;;;;;5135554;27;20076;-81
2023/07/31 03:09:49;;;;;;;4.03;0.80;;;15.70;99.90;;;;;;5138950;27;20038;-81
2023/07/31 03:12:15;;;;;;;2.00;0.70;;;15.80;99.90;;;;;;5133696;27;20035;-81
2023/07/31 03:14:40;;;;;;;1.38;0.82;;;15.80;99.90;;;;;;5114760;27;20122;-81
2023/07/31 03:17:06;;;;;;;1.75;0.80;;;15.80;99.90;;;;;;5132666;27;20039;-81
2023/07/31 03:19:32;;;;;;;1.48;0.80;;;15.80;99.90;;;;;;5120364;27;20037;-81
2023/07/31 03:21:59;;;;;;;2.47;0.63;;;15.80;99.90;;;;;;5125809;27;20037;-81
2023/07/31 03:24:24;;;;;;;1.13;0.73;;;15.80;99.90;;;;;;5117066;27;20046;-81
2023/07/31 03:26:50;;;;;;;1.38;0.70;;;15.80;99.90;;;;;;5139910;27;20113;-81
2023/07/31 03:29:16;;;;;;;1.10;0.60;;;15.80;99.90;;;;;;5134883;27;20035;-81
2023/07/31 03:31:41;;;;;;;1.70;0.60;;;15.90;99.90;;;;;;5127912;27;20440;-81
2023/07/31 03:34:07;;;;;;;3.38;0.70;;;15.80;99.90;;;;;;5121299;27;20396;-81
2023/07/31 03:36:32;;;;;;;1.15;0.57;;;15.90;99.90;;;;;;5130469;27;20047;-81
2023/07/31 03:38:58;;;;;;;1.67;0.80;;;15.90;99.90;;;;;;5137471;27;20038;-81
2023/07/31 03:41:24;;;;;;;1.73;0.60;;;15.90;99.90;;;;;;5098722;27;20035;-81
2023/07/31 03:43:51;;;;;;;1.55;0.77;;;15.90;99.90;;;;;;5116819;27;20054;-81
2023/07/31 03:46:17;;;;;;;1.27;0.70;;;15.90;99.90;;;;;;5123649;27;20045;-81
2023/07/31 03:48:43;;;;;;;1.73;0.50;;;16.00;99.90;;;;;;5115150;27;20039;-81
2023/07/31 03:51:08;;;;;;;1.08;0.57;;;15.90;99.90;;;;;;5119157;27;20034;-80
2023/07/31 03:53:34;;;;;;;0.80;0.35;;;16.00;99.90;;;;;;5102732;27;20077;-81
2023/07/31 03:56:00;;;;;;;1.85;0.50;;;16.00;99.90;;;;;;5109598;27;20114;-81
2023/07/31 03:58:25;;;;;;;0.98;0.40;;;15.90;99.90;;;;;;5119434;27;20546;-81
2023/07/31 04:00:51;;;;;;;1.58;0.43;;;15.90;99.90;;;;;;5135222;27;20538;-81
2023/07/31 04:03:16;;;;;;;1.85;0.60;;;16.00;99.90;;;;;;5117315;27;20047;-81
2023/07/31 04:05:42;;;;;;;2.22;0.45;;;16.00;99.90;;;;;;5117687;27;20039;-81
2023/07/31 04:08:08;;;;;;;1.42;0.50;;;15.90;99.90;;;;;;5103222;27;20049;-81
2023/07/31 04:10:33;;;;;;;1.02;0.40;;;15.90;99.90;;;;;;5137360;27;20065;-81
2023/07/31 04:13:00;;;;;;;1.05;0.30;;;15.90;99.90;;;;;;5118451;27;20043;-80
2023/07/31 04:15:26;;;;;;;1.85;0.40;;;15.90;99.90;;;;;;5139294;27;20038;-81
2023/07/31 04:17:51;;;;;;;1.58;0.50;;;15.90;99.90;;;;;;5137346;27;20031;-82
2023/07/31 04:20:17;;;;;;;2.80;0.45;;;16.00;99.90;;;;;;5123135;27;20047;-81
2023/07/31 04:22:43;;;;;;;1.38;0.30;;;16.00;99.90;;;;;;5133652;27;20043;-81
2023/07/31 04:25:08;;;;;;;0.65;0.30;;;16.00;99.90;;;;;;5125251;27;20062;-81
2023/07/31 04:27:34;;;;;;;1.13;0.40;;;15.90;99.90;;;;;;5122038;27;20419;-81
2023/07/31 04:29:59;;;;;;;2.67;0.60;;;15.90;99.90;;;;;;5122578;27;20035;-81
2023/07/31 04:32:25;;;;;;;3.45;0.50;;;16.00;99.90;;;;;;5118502;27;20072;-81
2023/07/31 04:34:51;;;;;;;1.58;0.50;;;16.00;99.90;;;;;;5132854;27;20121;-81
2023/07/31 04:37:16;;;;;;;0.95;0.50;;;15.90;99.90;;;;;;5115109;27;20054;-81
2023/07/31 04:39:42;;;;;;;3.05;0.70;;;16.00;99.90;;;;;;5136894;27;20035;-81
2023/07/31 04:42:08;;;;;;;1.25;0.57;;;16.00;99.90;;;;;;5130790;27;20039;-81
2023/07/31 04:44:33;;;;;;;2.40;0.88;;;16.00;99.90;;;;;;5115258;27;20654;-81
2023/07/31 04:46:59;;;;;;;1.38;0.70;;;16.00;99.90;;;;;;5133814;27;20035;-81
2023/07/31 04:49:25;;;;;;;1.85;0.70;;;16.00;99.90;;;;;;5137311;27;20126;-81
2023/07/31 04:51:50;;;;;;;2.10;0.88;;;15.90;99.90;;;;;;5133293;27;20034;-81
2023/07/31 04:54:16;;;;;;;2.17;0.75;;;15.90;99.90;;;;;;5115394;27;20046;-81
2023/07/31 04:56:41;;;;;;;2.10;0.70;;;15.90;99.90;;;;;;5135223;27;20185;-81
2023/07/31 04:59:07;;;;;;;0.80;0.50;;;15.90;99.90;;;;;;5137708;27;20107;-81
2023/07/31 05:01:33;;;;;;;2.25;0.80;;;15.90;99.90;;;;;;5134277;27;20055;-81
2023/07/31 05:03:58;;;;;;;2.95;0.80;;;15.90;99.90;;;;;;5116296;27;20038;-81
2023/07/31 05:06:24;;;;;;;3.30;0.90;;;15.90;99.90;;;;;;5118432;27;20432;-81
2023/07/31 05:08:49;;;;;;;1.75;0.82;;;15.90;99.90;;;;;;5138145;27;20121;-81
2023/07/31 05:11:16;;;;;;;2.53;0.80;;;15.90;99.90;;;;;;5116934;27;20126;-81
2023/07/31 05:13:42;;;;;;;2.35;0.60;;;15.90;99.90;;;;;;5137911;27;20126;-81
2023/07/31 05:16:07;;;;;;;1.17;0.65;;;16.00;99.90;;;;;;5119310;27;20056;-81
2023/07/31 05:18:33;;;;;;;3.28;0.70;;;15.90;99.90;;;;;;5136420;27;20035;-81
2023/07/31 05:20:58;;;;;;;1.80;0.80;;;15.90;99.90;;;;;;5116101;27;20118;-81
2023/07/31 05:23:24;;;;;;;2.30;0.70;;;16.00;99.90;;;;;;5114097;27;20096;-81
2023/07/31 05:25:50;;;;;;;2.55;0.60;;;15.90;99.90;;;;;;5118400;27;20507;-81
2023/07/31 05:28:15;;;;;;;5.43;0.70;;;15.90;99.90;;;;;;5137952;27;20165;-81
2023/07/31 05:30:41;;;;;;;1.67;0.60;;;16.00;99.90;;;;;;5138963;27;20586;-82
2023/07/31 05:33:07;;;;;;;7.45;0.95;;;16.00;99.90;;;;;;5120927;27;20064;-81
2023/07/31 05:35:32;;;;;;;3.90;0.68;;;15.90;99.90;;;;;;5105781;27;20043;-82
2023/07/31 05:37:58;;;;;;;1.92;0.65;;;16.00;99.90;;;;;;5134301;27;20045;-81
2023/07/31 05:40:23;;;;;;;1.98;0.80;;;16.00;99.90;;;;;;5128010;27;20131;-81
2023/07/31 05:42:49;;;;;;;2.80;1.10;;;16.00;99.90;;;;;;5121037;27;20190;-82
2023/07/31 05:45:15;;;;;;;3.40;0.90;;;16.00;99.90;;;;;;5139609;27;20030;-81
2023/07/31 05:47:40;;;;;;;3.90;1.20;;;16.10;99.90;;;;;;5119319;27;20561;-82
2023/07/31 05:50:06;;;;;;;4.82;0.93;;;16.10;99.90;;;;;;5139623;27;20419;-82
2023/07/31 05:52:32;;;;;;;3.72;1.20;;;16.10;99.90;;;;;;5137559;27;20038;-82
2023/07/31 05:54:57;;;;;;;3.30;0.95;;;16.10;99.90;;;;;;5133152;27;20034;-82
2023/07/31 05:57:23;;;;;;;2.72;1.17;;;16.10;99.90;;;;;;5121292;27;20107;-82
2023/07/31 05:59:49;;;;;;;4.47;1.98;;;16.20;99.90;;;;;;5118018;27;20039;-81
2023/07/31 06:02:14;;;;;;;4.55;1.77;;;16.20;99.90;;;;;;5106681;27;20042;-81
2023/07/31 06:04:40;;;;;;;5.88;1.65;;;16.20;99.90;;;;;;5126755;27;20034;-81
2023/07/31 06:07:06;;;;;;;7.28;2.03;;;16.20;99.90;;;;;;5122913;27;20043;-82
2023/07/31 06:09:31;;;;;;;4.65;1.95;;;16.20;99.90;;;;;;5133765;27;20031;-82
2023/07/31 06:11:57;;;;;;;5.22;2.00;;;16.30;99.90;;;;;;5113472;27;20038;-81
2023/07/31 06:14:22;;;;;;;12.13;3.78;;;16.30;99.90;;;;;;5114815;27;20046;-81
2023/07/31 06:16:48;;;;;;;11.13;3.95;;;16.30;99.90;;;;;;5128894;27;20027;-81
2023/07/31 06:19:14;;;;;;;11.07;4.40;;;16.40;99.90;;;;;;5115039;27;20042;-81
2023/07/31 06:21:41;;;;;;;19.45;5.30;;;16.40;99.90;;;;;;5100968;28;20038;-81
2023/07/31 06:24:08;;;;;;;15.05;6.18;;;16.50;99.90;;;;;;5134374;27;20038;-81
2023/07/31 06:26:34;;;;;;;17.25;6.22;;;16.60;99.90;;;;;;5136802;27;20039;-81
2023/07/31 06:28:59;;;;;;;24.70;6.85;;;16.60;99.90;;;;;;5129037;27;20045;-81
2023/07/31 06:31:25;;;;;;;24.88;7.70;;;16.70;99.90;;;;;;5115846;28;20508;-81
2023/07/31 06:33:52;;;;;;;25.13;6.80;;;16.70;99.90;;;;;;5111991;27;20409;-81
2023/07/31 06:36:18;;;;;;;19.38;6.40;;;16.80;99.90;;;;;;5131117;27;20050;-81
2023/07/31 06:38:44;;;;;;;11.15;4.53;;;16.80;99.90;;;;;;5124860;27;20028;-81
2023/07/31 06:41:10;;;;;;;20.80;7.07;;;16.90;99.90;;;;;;5118991;27;20035;-81
2023/07/31 06:43:36;;;;;;;19.10;7.57;;;16.90;99.90;;;;;;5112591;27;20103;-81
2023/07/31 06:46:08;;;;;;;18.15;6.90;;;16.90;99.90;;;;;;5104073;27;20500;-81
2023/07/31 06:48:34;;;;;;;15.50;6.25;;;16.90;99.90;;;;;;5118840;27;20035;-81
2023/07/31 06:51:01;;;;;;;18.52;7.05;;;16.90;99.90;;;;;;5132401;27;20038;-81
2023/07/31 06:53:26;;;;;;;16.05;5.90;;;16.90;99.90;;;;;;5135470;27;20039;-81
2023/07/31 06:55:52;;;;;;;22.77;7.38;;;16.90;99.90;;;;;;5134108;27;20037;-81
2023/07/31 06:58:18;;;;;;;21.05;7.20;;;17.00;99.90;;;;;;5134225;27;20117;-82
2023/07/31 07:00:44;;;;;;;17.58;6.00;;;17.00;99.90;;;;;;5138249;27;20073;-81
2023/07/31 07:03:09;;;;;;;20.42;6.28;;;17.00;99.90;;;;;;5134542;27;20039;-81
2023/07/31 07:05:35;;;;;;;13.68;5.20;;;17.00;99.90;;;;;;5119255;27;20045;-81
2023/07/31 07:08:00;;;;;;;14.43;6.50;;;17.10;99.90;;;;;;5131738;27;20405;-82
2023/07/31 07:10:26;;;;;;;21.95;6.70;;;17.10;99.90;;;;;;5115232;27;20042;-82
2023/07/31 07:12:55;;;;;;;17.38;6.07;;;17.10;99.90;;;;;;5115547;27;20115;-82
2023/07/31 07:15:20;;;;;;;21.27;6.57;;;17.10;99.90;;;;;;5132513;27;20049;-82
2023/07/31 07:17:46;;;;;;;18.17;6.72;;;17.10;99.90;;;;;;5132811;27;20114;-82
2023/07/31 07:20:12;;;;;;;15.30;5.30;;;17.10;99.90;;;;;;5118458;27;20941;-82
2023/07/31 07:22:38;;;;;;;25.30;6.50;;;17.10;99.90;;;;;;5122382;27;20041;-82
2023/07/31 07:25:07;;;;;;;18.10;5.78;;;17.10;99.90;;;;;;5127656;27;20035;-82
2023/07/31 07:27:32;;;;;;;20.13;5.90;;;17.00;99.90;;;;;;5109980;27;20038;-81
2023/07/31 07:29:58;;;;;;;15.70;5.60;;;17.00;99.90;;;;;;5142854;27;20043;-82
2023/07/31 07:32:24;;;;;;;20.55;5.97;;;17.00;99.90;;;;;;5136031;27;20035;-81
2023/07/31 07:34:49;;;;;;;15.75;5.85;;;17.00;99.90;;;;;;5138823;27;20108;-81
2023/07/31 07:37:16;;;;;;;18.27;5.35;;;17.00;99.90;;;;;;5140293;27;20377;-81
2023/07/31 07:39:42;;;;;;;10.23;5.10;;;16.90;99.90;;;;;;5135172;27;20084;-81
2023/07/31 07:42:07;;;;;;;13.48;4.53;;;16.90;99.90;;;;;;5126821;27;20039;-81
2023/07/31 07:44:33;;;;;;;11.88;4.30;;;16.90;99.90;;;;;;5139981;27;20053;-81
2023/07/31 07:46:59;;;;;;;11.88;3.90;;;16.90;99.90;;;;;;5138030;27;20066;-81
2023/07/31 07:49:24;;;;;;;11.85;3.88;;;16.90;99.90;;;;;;5119515;27;20043;-81
2023/07/31 07:51:50;;;;;;;9.32;3.72;;;16.90;99.90;;;;;;5104094;27;20137;-81
2023/07/31 07:54:20;;;;;;;8.65;3.60;;;16.90;99.90;;;;;;5143358;27;20114;-81
2023/07/31 07:56:46;;;;;;;7.03;2.80;;;16.90;99.90;;;;;;5140361;27;20370;-81
2023/07/31 07:59:12;;;;;;;8.88;3.10;;;16.90;99.90;;;;;;5140929;27;20351;-81
2023/07/31 08:01:38;;;;;;;9.65;3.40;;;16.90;99.90;;;;;;5118876;27;20047;-80
2023/07/31 08:04:03;;;;;;;6.47;2.78;;;16.90;99.90;;;;;;5134734;27;20039;-81
2023/07/31 08:06:30;;;;;;;8.05;2.70;;;16.80;99.90;;;;;;5106864;27;20035;-81
2023/07/31 08:08:55;;;;;;;5.82;2.17;;;16.80;99.90;;;;;;5121755;27;20494;-81
2023/07/31 08:11:23;;;;;;;5.78;2.17;;;16.90;99.90;;;;;;5142619;27;20141;-81
2023/07/31 08:13:49;;;;;;;9.48;2.85;;;16.90;99.90;;;;;;5104076;27;20125;-81
2023/07/31 08:16:15;;;;;;;5.80;2.63;;;16.90;99.90;;;;;;5135875;27;20054;-81
2023/07/31 08:18:42;;;;;;;8.60;2.70;;;16.90;99.90;;;;;;5135566;27;20485;-81
2023/07/31 08:21:08;;;;;;;7.35;2.60;;;16.90;99.90;;;;;;5139779;27;20228;-81
2023/07/31 08:23:33;;;;;;;5.25;2.58;;;16.90;99.90;;;;;;5102402;27;20502;-81
2023/07/31 08:25:59;;;;;;;5.60;2.40;;;16.90;99.90;;;;;;5128125;27;20080;-81
2023/07/31 08:28:25;;;;;;;6.75;2.15;;;16.90;99.90;;;;;;5116208;27;20046;-81
2023/07/31 08:30:51;;;;;;;6.88;1.95;;;17.00;99.90;;;;;;5127586;27;20054;-81
2023/07/31 08:33:16;;;;;;;5.07;2.40;;;17.00;99.90;;;;;;5121452;27;20155;-81
2023/07/31 08:35:42;;;;;;;5.13;1.92;;;17.00;99.90;;;;;;5105983;27;20031;-81
2023/07/31 08:38:08;;;;;;;5.22;2.17;;;17.10;99.90;;;;;;5120675;27;20039;-81
2023/07/31 08:40:38;;;;;;;5.97;1.92;;;17.10;99.90;;;;;;5119604;27;20092;-82
2023/07/31 08:43:03;;;;;;;4.30;1.58;;;17.10;99.90;;;;;;5136185;27;20043;-81
2023/07/31 08:45:30;;;;;;;6.10;1.67;;;17.10;99.90;;;;;;5121120;27;20049;-81
2023/07/31 08:47:57;;;;;;;4.30;1.33;;;17.10;99.90;;;;;;5116741;27;20068;-81
2023/07/31 08:50:23;;;;;;;5.18;1.85;;;17.20;99.90;;;;;;5120354;27;20039;-81
2023/07/31 08:52:50;;;;;;;4.82;1.42;;;17.20;99.90;;;;;;5122759;27;20497;-82
2023/07/31 08:55:16;;;;;;;3.38;1.42;;;17.30;99.90;;;;;;5116608;27;20043;-83
2023/07/31 08:57:43;;;;;;;4.57;1.92;;;17.30;99.90;;;;;;5120428;27;20034;-81
2023/07/31 09:00:10;;;;;;;5.97;1.52;;;17.30;99.90;;;;;;5138536;27;20043;-81
2023/07/31 09:02:51;;;;;;;3.50;1.42;;;17.40;99.90;;;;;;5138386;27;20095;-81
2023/07/31 09:05:17;;;;;;;3.17;1.20;;;17.40;99.90;;;;;;5138176;27;20065;-81
2023/07/31 09:07:46;;;;;;;2.53;1.13;;;17.50;99.90;;;;;;5115659;27;20031;-81
2023/07/31 09:10:12;;;;;;;4.20;1.40;;;17.50;99.90;;;;;;5136435;27;20133;-82
2023/07/31 09:12:38;;;;;;;3.17;1.10;;;17.60;99.90;;;;;;5141131;27;20529;-81
2023/07/31 09:15:04;;;;;;;3.53;1.40;;;17.60;99.90;;;;;;5119891;27;20038;-81
2023/07/31 09:17:36;;;;;;;4.18;1.50;;;17.60;99.90;;;;;;5136726;27;20081;-81
2023/07/31 09:20:21;;;;;;;1.88;0.90;;;17.60;99.90;;;;;;5122313;27;20042;-81
2023/07/31 09:22:49;;;;;;;1.95;0.98;;;17.70;99.90;;;;;;5120810;27;20035;-81
2023/07/31 09:25:18;;;;;;;3.70;1.17;;;17.80;99.90;;;;;;5120746;27;20110;-81
2023/07/31 09:27:49;;;;;;;2.40;1.08;;;17.80;99.90;;;;;;5137820;27;20023;-81
2023/07/31 09:30:16;;;;;;;2.72;0.90;;;17.70;99.90;;;;;;5140106;27;20034;-82
2023/07/31 09:32:44;;;;;;;3.22;0.80;;;17.80;99.90;;;;;;5115578;27;20047;-82
2023/07/31 09:35:15;;;;;;;2.38;0.90;;;17.80;99.90;;;;;;5107199;27;20066;-82
2023/07/31 09:37:41;;;;;;;5.47;0.90;;;17.80;99.90;;;;;;5134530;27;20570;-82
2023/07/31 09:40:07;;;;;;;2.30;0.90;;;17.90;99.90;;;;;;5120129;27;20082;-82
2023/07/31 09:42:34;;;;;;;2.67;0.90;;;17.90;99.90;;;;;;5098964;27;20045;-81
2023/07/31 09:45:10;;;;;;;2.20;0.70;;;18.00;99.90;;;;;;5121803;27;20118;-81
2023/07/31 09:47:36;;;;;;;0.90;0.50;;;18.00;99.90;;;;;;5140326;27;20469;-82
2023/07/31 09:50:07;;;;;;;2.10;0.60;;;18.10;99.90;;;;;;5120907;27;20039;-82
2023/07/31 09:52:32;;;;;;;1.13;0.50;;;18.10;99.90;;;;;;5117751;27;20057;-82
2023/07/31 09:54:58;;;;;;;1.08;0.50;;;18.20;99.90;;;;;;5139294;27;20053;-81
2023/07/31 09:57:25;;;;;;;1.50;0.60;;;18.30;99.90;;;;;;5137762;27;20090;-82
2023/07/31 09:59:52;;;;;;;1.40;0.45;;;18.30;99.90;;;;;;5119669;27;20051;-82
2023/07/31 10:02:22;;;;;;;1.00;0.40;;;18.40;99.90;;;;;;5122990;27;20410;-82
2023/07/31 10:04:50;;;;;;;1.27;0.50;;;18.40;99.90;;;;;;5140127;27;20364;-82
2023/07/31 10:07:19;;;;;;;0.77;0.50;;;18.50;99.90;;;;;;5133174;27;20038;-81
2023/07/31 10:09:45;;;;;;;0.90;0.40;;;18.50;99.90;;;;;;5113417;27;20038;-82
2023/07/31 10:12:14;;;;;;;0.50;0.30;;;18.60;99.90;;;;;;5122282;27;20039;-83
2023/07/31 10:14:41;;;;;;;1.08;0.43;;;18.70;99.90;;;;;;5115853;27;20288;-81
2023/07/31 10:17:08;;;;;;;0.73;0.35;;;18.60;99.90;;;;;;5116579;28;20043;-82
2023/07/31 10:19:35;;;;;;;0.65;0.40;;;18.60;99.90;;;;;;5118856;27;20054;-82
2023/07/31 10:22:03;;;;;;;0.90;0.40;;;18.50;99.90;;;;;;5121640;27;20034;-82
2023/07/31 10:24:29;;;;;;;1.48;0.40;;;18.60;99.90;;;;;;5134134;27;20035;-82
2023/07/31 10:26:59;;;;;;;2.13;0.40;;;18.60;99.90;;;;;;5131021;27;20023;-82
2023/07/31 10:29:26;;;;;;;0.90;0.50;;;18.60;99.90;;;;;;5093356;27;20035;-82
2023/07/31 10:31:53;;;;;;;2.08;0.70;;;18.70;99.90;;;;;;5113820;28;20481;-82
2023/07/31 10:34:19;;;;;;;0.50;0.30;;;18.80;99.90;;;;;;5113325;27;20097;-82
2023/07/31 10:36:44;;;;;;;2.33;0.50;;;18.80;99.90;;;;;;5129668;27;20454;-82
2023/07/31 10:39:36;;;;;;;1.33;0.50;;;18.80;99.90;;;;;;5113514;27;20035;-82
2023/07/31 10:42:12;;;;;;;1.88;0.40;;;18.90;99.90;;;;;;5107966;27;20126;-82
2023/07/31 10:44:43;;;;;;;0.77;0.40;;;18.90;99.90;;;;;;5112483;27;20374;-82
2023/07/31 10:47:08;;;;;;;0.80;0.50;;;18.80;99.90;;;;;;5136856;27;20035;-82
2023/07/31 10:49:34;;;;;;;0.98;0.50;;;18.80;99.90;;;;;;5111036;27;20035;-82
2023/07/31 10:52:03;;;;;;;2.20;0.40;;;18.80;99.90;;;;;;5116202;27;20486;-82
2023/07/31 10:54:29;;;;;;;0.70;0.30;;;18.80;99.90;;;;;;5132615;27;20039;-82
2023/07/31 10:56:56;;;;;;;2.08;0.32;;;18.80;99.90;;;;;;5133243;27;20046;-82
2023/07/31 10:59:28;;;;;;;0.77;0.40;;;18.80;99.90;;;;;;5097940;27;20046;-82
2023/07/31 11:01:58;;;;;;;1.08;0.47;;;18.90;99.90;;;;;;5118546;27;20051;-82
2023/07/31 11:04:27;;;;;;;0.88;0.40;;;18.80;99.90;;;;;;5123959;27;20135;-82
2023/07/31 11:06:58;;;;;;;1.27;0.30;;;18.80;99.90;;;;;;5133094;27;20642;-82
2023/07/31 11:09:28;;;;;;;5.28;1.00;;;18.80;99.90;;;;;;5133371;27;20051;-82
2023/07/31 11:11:54;;;;;;;1.20;0.40;;;18.80;99.90;;;;;;5114545;27;20039;-82
2023/07/31 11:14:20;;;;;;;4.32;0.70;;;18.80;99.90;;;;;;5135895;27;20046;-82
2023/07/31 11:16:49;;;;;;;0.70;0.20;;;18.80;99.90;;;;;;5133409;27;20281;-82
2023/07/31 11:19:14;;;;;;;2.05;0.50;;;18.80;99.90;;;;;;5135750;27;20485;-82
2023/07/31 11:21:40;;;;;;;0.50;0.20;;;18.80;99.90;;;;;;5144011;27;20038;-82
2023/07/31 11:24:06;;;;;;;2.13;0.28;;;18.90;99.90;;;;;;5114434;27;20091;-82
2023/07/31 11:26:31;;;;;;;2.88;0.38;;;18.90;99.90;;;;;;5132317;27;20096;-82
2023/07/31 11:28:57;;;;;;;0.68;0.30;;;18.80;99.90;;;;;;5131169;27;20047;-82
2023/07/31 11:31:23;;;;;;;13.90;0.70;;;18.80;99.90;;;;;;5121702;27;20047;-82
2023/07/31 11:33:48;;;;;;;3.97;0.35;;;18.70;99.90;;;;;;5097378;27;20088;-82
2023/07/31 11:36:19;;;;;;;1.60;0.15;;;18.70;99.90;;;;;;5113903;27;20077;-83
2023/07/31 11:38:45;;;;;;;2.00;0.30;;;18.70;99.90;;;;;;5124530;27;20064;-82
2023/07/31 11:41:13;;;;;;;0.60;0.10;;;18.70;99.90;;;;;;5122230;27;20035;-82
2023/07/31 11:43:38;;;;;;;1.08;0.10;;;18.60;99.90;;;;;;5114388;27;20496;-82
2023/07/31 11:46:06;;;;;;;0.82;0.30;;;18.70;99.90;;;;;;5132518;27;20031;-82
2023/07/31 11:48:35;;;;;;;2.03;0.32;;;18.70;99.90;;;;;;5132186;27;20417;-82
2023/07/31 11:51:06;;;;;;;0.77;0.17;;;18.70;99.90;;;;;;5121701;27;20123;-82
2023/07/31 11:53:53;;;;;;;1.00;0.20;;;18.70;99.90;;;;;;5118248;27;20493;-82
2023/07/31 11:56:20;;;;;;;1.40;0.20;;;18.80;99.90;;;;;;5130621;27;20046;-82
2023/07/31 11:59:02;;;;;;;1.27;0.30;;;18.90;99.90;;;;;;5132501;27;20034;-83
2023/07/31 12:01:28;;;;;;;1.58;0.30;;;19.10;99.90;;;;;;5105228;27;20172;-82
2023/07/31 12:03:55;;;;;;;0.82;0.30;;;19.30;99.90;;;;;;5135598;27;20497;-82
2023/07/31 12:06:21;;;;;;;1.67;0.30;;;19.40;99.90;;;;;;5112611;27;20035;-82
2023/07/31 12:08:47;;;;;;;0.43;0.20;;;19.60;99.90;;;;;;5114356;27;20043;-82
2023/07/31 12:11:17;;;;;;;0.60;0.40;;;19.70;99.90;;;;;;5131402;27;20416;-82
2023/07/31 12:13:43;;;;;;;0.50;0.40;;;19.80;99.90;;;;;;5118536;27;20316;-82
2023/07/31 12:16:08;;;;;;;0.90;0.50;;;19.90;99.90;;;;;;5113305;27;20070;-82
2023/07/31 12:18:36;;;;;;;0.77;0.40;;;20.00;99.90;;;;;;5128533;27;20057;-82
2023/07/31 12:21:05;;;;;;;1.67;0.40;;;20.00;99.90;;;;;;5112679;27;20110;-82
2023/07/31 12:23:32;;;;;;;2.17;0.93;;;20.00;99.90;;;;;;5117590;27;20084;-82
2023/07/31 12:26:05;;;;;;;0.85;0.50;;;20.00;99.90;;;;;;5112564;27;20060;-82
2023/07/31 12:28:34;;;;;;;0.73;0.43;;;20.10;99.90;;;;;;5133122;27;20027;-82
2023/07/31 12:31:00;;;;;;;1.52;0.77;;;20.00;99.90;;;;;;5137019;27;20039;-82
2023/07/31 12:33:34;;;;;;;2.15;0.65;;;20.00;99.90;;;;;;5116465;27;20039;-82
2023/07/31 12:36:01;;;;;;;1.58;0.50;;;20.00;99.90;;;;;;5131626;27;20023;-82
2023/07/31 12:38:27;;;;;;;2.20;0.60;;;19.90;99.90;;;;;;5113218;27;20067;-82
2023/07/31 12:40:53;;;;;;;2.35;0.60;;;20.00;99.90;;;;;;5134030;27;20082;-82
2023/07/31 12:43:18;;;;;;;3.65;0.70;;;19.80;99.90;;;;;;5132978;27;20451;-82